Actual water levels and discharges of Morava river

Lanžhot

Date and time (UTC) H (cm) Q (m3/s)
22. 2. 2020 06:10 111 63
22. 2. 2020 06:00 112 64
22. 2. 2020 05:00 112 64
22. 2. 2020 04:00 111 63
22. 2. 2020 03:00 112 64
22. 2. 2020 02:00 112 64
22. 2. 2020 01:00 112 64
22. 2. 2020 00:00 113 64
21. 2. 2020 23:00 113 64
21. 2. 2020 22:00 113 64
21. 2. 2020 21:00 113 64
21. 2. 2020 20:00 112 64
21. 2. 2020 19:00 112 64
21. 2. 2020 18:00 111 63

H - water level, Q - discharge

Strážnice

Date and time (UTC) H (cm) Q (m3/s)
22. 2. 2020 06:20 193 67
22. 2. 2020 06:00 193 67
22. 2. 2020 05:00 194 67
22. 2. 2020 04:00 194 67
22. 2. 2020 03:00 195 68
22. 2. 2020 02:00 196 69
22. 2. 2020 01:00 196 69
22. 2. 2020 00:00 196 69
21. 2. 2020 23:00 195 68
21. 2. 2020 22:00 195 68
21. 2. 2020 21:00 194 67
21. 2. 2020 20:00 194 67
21. 2. 2020 19:00 194 67
21. 2. 2020 18:00 196 69

H - water level, Q - discharge

Spytihněv

Date and time (UTC) H (cm) Q (m3/s)
22. 2. 2020 06:30 160 53
22. 2. 2020 06:00 160 53
22. 2. 2020 05:00 160 53
22. 2. 2020 04:00 160 53
22. 2. 2020 03:00 160 53
22. 2. 2020 02:00 160 53
22. 2. 2020 01:00 160 53
22. 2. 2020 00:00 160 53
21. 2. 2020 23:00 161 54
21. 2. 2020 22:00 162 55
21. 2. 2020 21:00 163 55
21. 2. 2020 20:00 163 55
21. 2. 2020 19:00 165 57
21. 2. 2020 18:00 163 55

H - water level, Q - discharge

Kroměříž

Date and time (UTC) H (cm) Q (m3/s)
22. 2. 2020 06:20 191 54
22. 2. 2020 06:00 191 54
22. 2. 2020 05:00 191 54
22. 2. 2020 04:00 191 54
22. 2. 2020 03:00 191 54
22. 2. 2020 02:00 190 53
22. 2. 2020 01:00 190 53
22. 2. 2020 00:00 190 53
21. 2. 2020 23:00 191 54
21. 2. 2020 22:00 191 54
21. 2. 2020 21:00 191 54
21. 2. 2020 20:00 192 55
21. 2. 2020 19:00 193 55
21. 2. 2020 18:00 193 55

H - water level, Q - discharge

Olomouc-Nové Sady tok

Date and time (UTC) H (cm) Q (m3/s)
22. 2. 2020 06:30 165 38
22. 2. 2020 06:00 165 38
22. 2. 2020 05:00 164 37
22. 2. 2020 04:00 163 37
22. 2. 2020 03:00 162 37
22. 2. 2020 02:00 161 36
22. 2. 2020 01:00 160 36
22. 2. 2020 00:00 159 35
21. 2. 2020 23:00 157 34
21. 2. 2020 22:00 157 34
21. 2. 2020 21:00 156 34
21. 2. 2020 20:00 155 34
21. 2. 2020 19:00 156 34
21. 2. 2020 18:00 155 34

H - water level, Q - discharge

Moravičany

Date and time (UTC) H (cm) Q (m3/s)
22. 2. 2020 06:20 107 17
22. 2. 2020 06:00 107 17
22. 2. 2020 05:00 107 17
22. 2. 2020 04:00 108 18
22. 2. 2020 03:00 108 18
22. 2. 2020 02:00 109 18
22. 2. 2020 01:00 110 19
22. 2. 2020 00:00 110 19
21. 2. 2020 23:00 110 19
21. 2. 2020 22:00 110 19
21. 2. 2020 21:00 111 19
21. 2. 2020 20:00 111 19
21. 2. 2020 19:00 110 19
21. 2. 2020 18:00 109 18

H - water level, Q - discharge
Source data
Labe Basin Vltava Basin ČHMÚ